sensor_id;sensor_type;location;lat;lon;timestamp;pressure;altitude;pressure_sealevel;temperature;humidity
25498;BME280;13406;53.380;7.226;2023-07-28T00:00:32;101399.50;;;17.19;100.00
25498;BME280;13406;53.380;7.226;2023-07-28T00:02:58;101393.25;;;17.18;100.00
25498;BME280;13406;53.380;7.226;2023-07-28T00:05:23;101424.09;;;17.35;100.00
25498;BME280;13406;53.380;7.226;2023-07-28T00:07:48;101332.50;;;16.77;100.00
25498;BME280;13406;53.380;7.226;2023-07-28T00:10:14;101425.16;;;17.34;100.00
25498;BME280;13406;53.380;7.226;2023-07-28T00:12:39;101423.25;;;17.35;100.00
25498;BME280;13406;53.380;7.226;2023-07-28T00:15:05;101430.34;;;17.36;100.00
25498;BME280;13406;53.380;7.226;2023-07-28T00:17:31;101429.03;;;17.38;100.00
25498;BME280;13406;53.380;7.226;2023-07-28T00:19:56;101434.25;;;17.40;100.00
25498;BME280;13406;53.380;7.226;2023-07-28T00:22:21;101384.53;;;17.16;100.00
25498;BME280;13406;53.380;7.226;2023-07-28T00:24:47;101368.44;;;17.03;100.00
25498;BME280;13406;53.380;7.226;2023-07-28T00:27:12;101423.63;;;17.38;100.00
25498;BME280;13406;53.380;7.226;2023-07-28T00:29:40;101423.88;;;17.37;100.00
25498;BME280;13406;53.380;7.226;2023-07-28T00:32:06;101426.13;;;17.40;100.00
25498;BME280;13406;53.380;7.226;2023-07-28T00:34:32;101347.88;;;16.95;100.00
25498;BME280;13406;53.380;7.226;2023-07-28T00:36:57;101399.19;;;17.27;100.00
25498;BME280;13406;53.380;7.226;2023-07-28T00:39:23;101417.16;;;17.39;100.00
25498;BME280;13406;53.380;7.226;2023-07-28T00:41:48;101420.34;;;17.36;100.00
25498;BME280;13406;53.380;7.226;2023-07-28T00:44:14;101401.53;;;17.23;100.00
25498;BME280;13406;53.380;7.226;2023-07-28T00:46:41;101386.19;;;17.17;100.00
25498;BME280;13406;53.380;7.226;2023-07-28T00:49:06;101310.22;;;16.75;100.00
25498;BME280;13406;53.380;7.226;2023-07-28T00:51:32;101399.94;;;17.34;100.00
25498;BME280;13406;53.380;7.226;2023-07-28T00:53:57;101412.56;;;17.40;100.00
25498;BME280;13406;53.380;7.226;2023-07-28T00:56:24;101381.22;;;17.14;100.00
25498;BME280;13406;53.380;7.226;2023-07-28T00:58:50;101387.81;;;17.18;100.00
25498;BME280;13406;53.380;7.226;2023-07-28T01:01:16;101371.91;;;17.10;100.00
25498;BME280;13406;53.380;7.226;2023-07-28T01:03:42;101420.22;;;17.43;100.00
25498;BME280;13406;53.380;7.226;2023-07-28T01:06:20;101389.25;;;17.21;100.00
25498;BME280;13406;53.380;7.226;2023-07-28T01:08:55;101419.63;;;17.41;100.00
25498;BME280;13406;53.380;7.226;2023-07-28T01:11:22;101382.97;;;17.08;100.00
25498;BME280;13406;53.380;7.226;2023-07-28T01:13:47;101407.25;;;17.33;100.00
25498;BME280;13406;53.380;7.226;2023-07-28T01:16:13;101413.03;;;17.37;100.00
25498;BME280;13406;53.380;7.226;2023-07-28T01:18:39;101406.91;;;17.42;100.00
25498;BME280;13406;53.380;7.226;2023-07-28T01:21:08;101407.25;;;17.33;100.00
25498;BME280;13406;53.380;7.226;2023-07-28T01:26:43;101420.84;;;17.45;100.00
25498;BME280;13406;53.380;7.226;2023-07-28T01:29:11;101417.06;;;17.46;100.00
25498;BME280;13406;53.380;7.226;2023-07-28T01:31:39;101416.22;;;17.46;100.00
25498;BME280;13406;53.380;7.226;2023-07-28T01:34:04;101411.41;;;17.48;100.00
25498;BME280;13406;53.380;7.226;2023-07-28T01:36:30;101396.84;;;17.30;100.00
25498;BME280;13406;53.380;7.226;2023-07-28T01:38:55;101412.44;;;17.47;100.00
25498;BME280;13406;53.380;7.226;2023-07-28T01:41:21;101414.34;;;17.46;100.00
25498;BME280;13406;53.380;7.226;2023-07-28T01:43:46;101412.25;;;17.48;100.00
25498;BME280;13406;53.380;7.226;2023-07-28T01:46:11;101396.91;;;17.24;100.00
25498;BME280;13406;53.380;7.226;2023-07-28T01:48:37;101429.69;;;17.52;100.00
25498;BME280;13406;53.380;7.226;2023-07-28T01:51:03;101320.16;;;16.81;100.00
25498;BME280;13406;53.380;7.226;2023-07-28T01:53:28;101383.63;;;17.22;100.00
25498;BME280;13406;53.380;7.226;2023-07-28T01:55:54;101418.34;;;17.44;100.00
25498;BME280;13406;53.380;7.226;2023-07-28T01:58:19;101333.91;;;16.98;100.00
25498;BME280;13406;53.380;7.226;2023-07-28T02:00:44;101432.03;;;17.49;100.00
25498;BME280;13406;53.380;7.226;2023-07-28T02:03:11;101432.03;;;17.49;100.00
25498;BME280;13406;53.380;7.226;2023-07-28T02:05:37;101431.59;;;17.52;100.00
25498;BME280;13406;53.380;7.226;2023-07-28T02:08:02;101414.91;;;17.36;100.00
25498;BME280;13406;53.380;7.226;2023-07-28T02:10:28;101426.56;;;17.37;100.00
25498;BME280;13406;53.380;7.226;2023-07-28T02:12:54;101423.41;;;17.40;100.00
25498;BME280;13406;53.380;7.226;2023-07-28T02:15:19;101423.19;;;17.42;100.00
25498;BME280;13406;53.380;7.226;2023-07-28T02:17:45;101437.25;;;17.50;100.00
25498;BME280;13406;53.380;7.226;2023-07-28T02:20:11;101434.47;;;17.38;100.00
25498;BME280;13406;53.380;7.226;2023-07-28T02:22:39;101444.19;;;17.46;100.00
25498;BME280;13406;53.380;7.226;2023-07-28T02:25:04;101392.66;;;17.16;100.00
25498;BME280;13406;53.380;7.226;2023-07-28T02:27:30;101425.81;;;17.30;100.00
25498;BME280;13406;53.380;7.226;2023-07-28T02:29:55;101379.56;;;17.13;100.00
25498;BME280;13406;53.380;7.226;2023-07-28T02:32:21;101445.38;;;17.50;100.00
25498;BME280;13406;53.380;7.226;2023-07-28T02:34:46;101444.06;;;17.53;100.00
25498;BME280;13406;53.380;7.226;2023-07-28T02:37:14;101427.75;;;17.41;100.00
25498;BME280;13406;53.380;7.226;2023-07-28T02:39:39;101428.94;;;17.33;100.00
25498;BME280;13406;53.380;7.226;2023-07-28T02:42:05;101459.53;;;17.52;100.00
25498;BME280;13406;53.380;7.226;2023-07-28T02:44:31;101451.03;;;17.49;100.00
25498;BME280;13406;53.380;7.226;2023-07-28T02:46:57;101437.78;;;17.40;100.00
25498;BME280;13406;53.380;7.226;2023-07-28T02:49:22;101396.28;;;17.10;100.00
25498;BME280;13406;53.380;7.226;2023-07-28T02:51:47;101317.84;;;16.66;100.00
25498;BME280;13406;53.380;7.226;2023-07-28T02:54:13;101427.72;;;17.29;100.00
25498;BME280;13406;53.380;7.226;2023-07-28T02:56:38;101454.34;;;17.51;100.00
25498;BME280;13406;53.380;7.226;2023-07-28T02:59:04;101455.16;;;17.51;100.00
25498;BME280;13406;53.380;7.226;2023-07-28T03:01:30;101445.25;;;17.45;100.00
25498;BME280;13406;53.380;7.226;2023-07-28T03:04:02;101457.41;;;17.54;100.00
25498;BME280;13406;53.380;7.226;2023-07-28T03:06:28;101412.72;;;17.27;100.00
25498;BME280;13406;53.380;7.226;2023-07-28T03:08:54;101450.56;;;17.52;100.00
25498;BME280;13406;53.380;7.226;2023-07-28T03:11:20;101462.59;;;17.56;100.00
25498;BME280;13406;53.380;7.226;2023-07-28T03:13:45;101438.50;;;17.36;100.00
25498;BME280;13406;53.380;7.226;2023-07-28T03:16:11;101459.47;;;17.59;100.00
25498;BME280;13406;53.380;7.226;2023-07-28T03:18:36;101442.28;;;17.47;100.00
25498;BME280;13406;53.380;7.226;2023-07-28T03:21:02;101461.78;;;17.55;100.00
25498;BME280;13406;53.380;7.226;2023-07-28T03:23:27;101436.09;;;17.28;100.00
25498;BME280;13406;53.380;7.226;2023-07-28T03:25:53;101455.63;;;17.48;100.00
25498;BME280;13406;53.380;7.226;2023-07-28T03:28:18;101458.69;;;17.52;100.00
25498;BME280;13406;53.380;7.226;2023-07-28T03:30:44;101450.81;;;17.50;100.00
25498;BME280;13406;53.380;7.226;2023-07-28T03:33:09;101402.81;;;17.21;100.00
25498;BME280;13406;53.380;7.226;2023-07-28T03:35:35;101426.88;;;17.29;100.00
25498;BME280;13406;53.380;7.226;2023-07-28T03:38:00;101459.16;;;17.49;100.00
25498;BME280;13406;53.380;7.226;2023-07-28T03:40:26;101475.72;;;17.59;100.00
25498;BME280;13406;53.380;7.226;2023-07-28T03:42:52;101480.69;;;17.62;100.00
25498;BME280;13406;53.380;7.226;2023-07-28T03:45:17;101474.41;;;17.61;100.00
25498;BME280;13406;53.380;7.226;2023-07-28T03:47:43;101469.84;;;17.62;100.00
25498;BME280;13406;53.380;7.226;2023-07-28T03:50:08;101467.19;;;17.55;100.00
25498;BME280;13406;53.380;7.226;2023-07-28T03:52:34;101465.56;;;17.54;100.00
25498;BME280;13406;53.380;7.226;2023-07-28T03:55:00;101479.63;;;17.63;100.00
25498;BME280;13406;53.380;7.226;2023-07-28T03:57:25;101430.34;;;17.36;100.00
25498;BME280;13406;53.380;7.226;2023-07-28T03:59:51;101476.31;;;17.61;100.00
25498;BME280;13406;53.380;7.226;2023-07-28T04:02:16;101464.94;;;17.52;100.00
25498;BME280;13406;53.380;7.226;2023-07-28T04:04:41;101464.72;;;17.54;100.00
25498;BME280;13406;53.380;7.226;2023-07-28T04:07:07;101444.94;;;17.35;100.00
25498;BME280;13406;53.380;7.226;2023-07-28T04:09:32;101473.13;;;17.64;100.00
25498;BME280;13406;53.380;7.226;2023-07-28T04:11:58;101433.03;;;17.24;100.00
25498;BME280;13406;53.380;7.226;2023-07-28T04:14:23;101476.44;;;17.66;100.00
25498;BME280;13406;53.380;7.226;2023-07-28T04:16:49;101467.59;;;17.59;100.00
25498;BME280;13406;53.380;7.226;2023-07-28T04:19:14;101456.44;;;17.49;100.00
25498;BME280;13406;53.380;7.226;2023-07-28T04:21:40;101460.75;;;17.56;100.00
25498;BME280;13406;53.380;7.226;2023-07-28T04:24:06;101448.53;;;17.47;100.00
25498;BME280;13406;53.380;7.226;2023-07-28T04:26:32;101446.53;;;17.43;100.00
25498;BME280;13406;53.380;7.226;2023-07-28T04:28:58;101457.53;;;17.48;100.00
25498;BME280;13406;53.380;7.226;2023-07-28T04:31:23;101452.25;;;17.34;100.00
25498;BME280;13406;53.380;7.226;2023-07-28T04:33:48;101487.09;;;17.68;100.00
25498;BME280;13406;53.380;7.226;2023-07-28T04:36:14;101481.16;;;17.59;100.00
25498;BME280;13406;53.380;7.226;2023-07-28T04:38:39;101500.03;;;17.66;100.00
25498;BME280;13406;53.380;7.226;2023-07-28T04:41:05;101502.75;;;17.66;100.00
25498;BME280;13406;53.380;7.226;2023-07-28T04:43:30;101494.13;;;17.57;100.00
25498;BME280;13406;53.380;7.226;2023-07-28T04:45:55;101506.28;;;17.66;100.00
25498;BME280;13406;53.380;7.226;2023-07-28T04:48:21;101510.66;;;17.67;100.00
25498;BME280;13406;53.380;7.226;2023-07-28T04:50:47;101516.06;;;17.67;100.00
25498;BME280;13406;53.380;7.226;2023-07-28T04:53:12;101509.81;;;17.67;100.00
25498;BME280;13406;53.380;7.226;2023-07-28T04:55:38;101480.88;;;17.49;100.00
25498;BME280;13406;53.380;7.226;2023-07-28T04:58:03;101472.22;;;17.40;100.00
25498;BME280;13406;53.380;7.226;2023-07-28T05:00:28;101509.56;;;17.56;100.00
25498;BME280;13406;53.380;7.226;2023-07-28T05:02:54;101467.34;;;17.30;100.00
25498;BME280;13406;53.380;7.226;2023-07-28T05:05:19;101516.31;;;17.66;100.00
25498;BME280;13406;53.380;7.226;2023-07-28T05:07:45;101504.66;;;17.65;100.00
25498;BME280;13406;53.380;7.226;2023-07-28T05:10:10;101516.53;;;17.64;100.00
25498;BME280;13406;53.380;7.226;2023-07-28T05:12:36;101517.81;;;17.61;100.00
25498;BME280;13406;53.380;7.226;2023-07-28T05:15:02;101508.41;;;17.64;100.00
25498;BME280;13406;53.380;7.226;2023-07-28T05:17:27;101521.97;;;17.64;100.00
25498;BME280;13406;53.380;7.226;2023-07-28T05:19:53;101508.41;;;17.64;100.00
25498;BME280;13406;53.380;7.226;2023-07-28T05:22:18;101507.69;;;17.57;100.00
25498;BME280;13406;53.380;7.226;2023-07-28T05:24:44;101518.22;;;17.65;100.00
25498;BME280;13406;53.380;7.226;2023-07-28T05:27:11;101500.56;;;17.56;100.00
25498;BME280;13406;53.380;7.226;2023-07-28T05:29:36;101519.75;;;17.73;100.00
25498;BME280;13406;53.380;7.226;2023-07-28T05:32:02;101508.66;;;17.62;100.00
25498;BME280;13406;53.380;7.226;2023-07-28T05:34:29;101490.19;;;17.53;100.00
25498;BME280;13406;53.380;7.226;2023-07-28T05:36:55;101523.53;;;17.72;100.00
25498;BME280;13406;53.380;7.226;2023-07-28T05:39:20;101527.69;;;17.74;100.00
25498;BME280;13406;53.380;7.226;2023-07-28T05:41:46;101521.91;;;17.71;100.00
25498;BME280;13406;53.380;7.226;2023-07-28T05:44:11;101489.22;;;17.47;100.00
25498;BME280;13406;53.380;7.226;2023-07-28T05:46:37;101527.22;;;17.77;100.00
25498;BME280;13406;53.380;7.226;2023-07-28T05:49:02;101535.38;;;17.77;100.00
25498;BME280;13406;53.380;7.226;2023-07-28T05:51:30;101533.31;;;17.73;100.00
25498;BME280;13406;53.380;7.226;2023-07-28T05:53:55;101510.66;;;17.67;100.00
25498;BME280;13406;53.380;7.226;2023-07-28T05:56:21;101531.00;;;17.76;100.00
25498;BME280;13406;53.380;7.226;2023-07-28T05:58:47;101520.69;;;17.67;100.00
25498;BME280;13406;53.380;7.226;2023-07-28T06:01:13;101519.84;;;17.66;100.00
25498;BME280;13406;53.380;7.226;2023-07-28T06:03:39;101545.19;;;17.78;100.00
25498;BME280;13406;53.380;7.226;2023-07-28T06:06:04;101500.91;;;17.48;100.00
25498;BME280;13406;53.380;7.226;2023-07-28T06:08:30;101539.22;;;17.70;100.00
25498;BME280;13406;53.380;7.226;2023-07-28T06:10:55;101544.97;;;17.80;100.00
25498;BME280;13406;53.380;7.226;2023-07-28T06:13:21;101538.47;;;17.81;100.00
25498;BME280;13406;53.380;7.226;2023-07-28T06:15:46;101483.94;;;17.52;100.00
25498;BME280;13406;53.380;7.226;2023-07-28T06:18:12;101482.03;;;17.53;100.00
25498;BME280;13406;53.380;7.226;2023-07-28T06:20:37;101540.88;;;17.89;100.00
25498;BME280;13406;53.380;7.226;2023-07-28T06:23:03;101542.16;;;17.87;100.00
25498;BME280;13406;53.380;7.226;2023-07-28T06:25:28;101542.75;;;17.89;100.00
25498;BME280;13406;53.380;7.226;2023-07-28T06:27:54;101537.66;;;17.80;100.00
25498;BME280;13406;53.380;7.226;2023-07-28T06:30:20;101528.97;;;17.72;100.00
25498;BME280;13406;53.380;7.226;2023-07-28T06:32:46;101547.56;;;17.87;100.00
25498;BME280;13406;53.380;7.226;2023-07-28T06:35:11;101557.97;;;17.90;100.00
25498;BME280;13406;53.380;7.226;2023-07-28T06:37:37;101554.44;;;17.89;100.00
25498;BME280;13406;53.380;7.226;2023-07-28T06:40:06;101559.03;;;17.89;100.00
25498;BME280;13406;53.380;7.226;2023-07-28T06:42:34;101543.13;;;17.74;100.00
25498;BME280;13406;53.380;7.226;2023-07-28T06:44:59;101520.16;;;17.58;100.00
25498;BME280;13406;53.380;7.226;2023-07-28T06:47:25;101567.78;;;17.91;100.00
25498;BME280;13406;53.380;7.226;2023-07-28T06:49:50;101574.41;;;17.95;100.00
25498;BME280;13406;53.380;7.226;2023-07-28T06:52:16;101580.03;;;17.93;100.00
25498;BME280;13406;53.380;7.226;2023-07-28T06:54:41;101555.28;;;17.71;100.00
25498;BME280;13406;53.380;7.226;2023-07-28T06:57:07;101579.06;;;17.88;100.00
25498;BME280;13406;53.380;7.226;2023-07-28T06:59:32;101562.28;;;17.79;100.00
25498;BME280;13406;53.380;7.226;2023-07-28T07:01:58;101586.19;;;17.89;100.00
25498;BME280;13406;53.380;7.226;2023-07-28T07:04:23;101589.50;;;17.91;100.00
25498;BME280;13406;53.380;7.226;2023-07-28T07:06:49;101576.25;;;17.82;100.00
25498;BME280;13406;53.380;7.226;2023-07-28T07:09:14;101588.75;;;17.83;100.00
25498;BME280;13406;53.380;7.226;2023-07-28T07:11:40;101613.72;;;18.04;100.00
25498;BME280;13406;53.380;7.226;2023-07-28T07:14:06;101581.06;;;17.80;100.00
25498;BME280;13406;53.380;7.226;2023-07-28T07:16:32;101616.59;;;18.09;100.00
25498;BME280;13406;53.380;7.226;2023-07-28T07:18:57;101603.03;;;18.09;100.00
25498;BME280;13406;53.380;7.226;2023-07-28T07:21:23;101584.56;;;17.99;100.00
25498;BME280;13406;53.380;7.226;2023-07-28T07:23:48;101594.50;;;18.05;100.00
25498;BME280;13406;53.380;7.226;2023-07-28T07:26:14;101625.75;;;18.26;100.00
25498;BME280;13406;53.380;7.226;2023-07-28T07:28:39;101611.72;;;18.29;100.00
25498;BME280;13406;53.380;7.226;2023-07-28T07:31:12;101630.53;;;18.43;100.00
25498;BME280;13406;53.380;7.226;2023-07-28T07:33:38;101586.63;;;18.16;100.00
25498;BME280;13406;53.380;7.226;2023-07-28T07:36:04;101631.81;;;18.40;100.00
25498;BME280;13406;53.380;7.226;2023-07-28T07:38:29;101619.09;;;18.22;100.00
25498;BME280;13406;53.380;7.226;2023-07-28T07:40:54;101636.00;;;18.24;100.00
25498;BME280;13406;53.380;7.226;2023-07-28T07:43:20;101632.59;;;18.29;100.00
25498;BME280;13406;53.380;7.226;2023-07-28T07:45:46;101619.84;;;18.29;100.00
25498;BME280;13406;53.380;7.226;2023-07-28T07:48:12;101639.81;;;18.35;100.00
25498;BME280;13406;53.380;7.226;2023-07-28T07:50:38;101637.13;;;18.35;100.00
25498;BME280;13406;53.380;7.226;2023-07-28T07:53:04;101609.56;;;18.20;100.00
25498;BME280;13406;53.380;7.226;2023-07-28T07:55:29;101615.59;;;18.34;100.00
25498;BME280;13406;53.380;7.226;2023-07-28T07:57:56;101642.50;;;18.65;100.00
25498;BME280;13406;53.380;7.226;2023-07-28T08:00:22;101638.75;;;18.66;100.00
25498;BME280;13406;53.380;7.226;2023-07-28T08:02:49;101640.03;;;18.64;100.00
25498;BME280;13406;53.380;7.226;2023-07-28T08:05:15;101640.72;;;18.59;100.00
25498;BME280;13406;53.380;7.226;2023-07-28T08:07:40;101643.06;;;18.56;100.00
25498;BME280;13406;53.380;7.226;2023-07-28T08:10:06;101625.53;;;18.40;100.00
25498;BME280;13406;53.380;7.226;2023-07-28T08:12:32;101607.56;;;18.27;100.00
25498;BME280;13406;53.380;7.226;2023-07-28T08:14:57;101638.72;;;18.55;100.00
25498;BME280;13406;53.380;7.226;2023-07-28T08:17:23;101585.88;;;18.39;100.00
25498;BME280;13406;53.380;7.226;2023-07-28T08:19:48;101640.72;;;18.59;100.00
25498;BME280;13406;53.380;7.226;2023-07-28T08:22:14;101645.44;;;18.52;100.00
25498;BME280;13406;53.380;7.226;2023-07-28T08:24:39;101602.59;;;18.24;100.00
25498;BME280;13406;53.380;7.226;2023-07-28T08:27:05;101641.66;;;18.53;100.00
25498;BME280;13406;53.380;7.226;2023-07-28T08:29:31;101648.63;;;18.49;100.00
25498;BME280;13406;53.380;7.226;2023-07-28T08:31:56;101645.03;;;18.48;100.00
25498;BME280;13406;53.380;7.226;2023-07-28T08:34:22;101616.09;;;18.42;100.00
25498;BME280;13406;53.380;7.226;2023-07-28T08:36:47;101641.03;;;18.51;100.00
25498;BME280;13406;53.380;7.226;2023-07-28T08:39:13;101587.00;;;18.31;100.00
25498;BME280;13406;53.380;7.226;2023-07-28T08:41:40;101626.75;;;18.44;100.00
25498;BME280;13406;53.380;7.226;2023-07-28T08:44:07;101652.78;;;18.63;100.00
25498;BME280;13406;53.380;7.226;2023-07-28T08:46:32;101623.28;;;18.37;100.00
25498;BME280;13406;53.380;7.226;2023-07-28T08:48:59;101657.34;;;18.51;100.00
25498;BME280;13406;53.380;7.226;2023-07-28T08:51:25;101653.31;;;18.42;100.00
25498;BME280;13406;53.380;7.226;2023-07-28T08:53:50;101661.31;;;18.37;100.00
25498;BME280;13406;53.380;7.226;2023-07-28T08:56:16;101640.16;;;18.27;100.00
25498;BME280;13406;53.380;7.226;2023-07-28T08:58:41;101579.16;;;17.99;100.00
25498;BME280;13406;53.380;7.226;2023-07-28T09:01:07;101658.31;;;18.57;100.00
25498;BME280;13406;53.380;7.226;2023-07-28T09:03:32;101615.03;;;18.32;100.00
25498;BME280;13406;53.380;7.226;2023-07-28T09:06:02;101658.91;;;18.59;100.00
25498;BME280;13406;53.380;7.226;2023-07-28T09:08:30;101657.16;;;18.64;100.00
25498;BME280;13406;53.380;7.226;2023-07-28T09:11:01;101661.97;;;18.62;100.00
25498;BME280;13406;53.380;7.226;2023-07-28T09:13:35;101666.19;;;18.77;100.00
25498;BME280;13406;53.380;7.226;2023-07-28T09:16:01;101663.53;;;18.70;100.00
25498;BME280;13406;53.380;7.226;2023-07-28T09:18:26;101653.66;;;18.76;100.00
25498;BME280;13406;53.380;7.226;2023-07-28T09:20:55;101660.28;;;18.80;100.00
25498;BME280;13406;53.380;7.226;2023-07-28T09:23:30;101662.31;;;18.96;100.00
25498;BME280;13406;53.380;7.226;2023-07-28T09:25:59;101657.13;;;19.06;100.00
25498;BME280;13406;53.380;7.226;2023-07-28T09:28:39;101619.03;;;18.83;100.00
25498;BME280;13406;53.380;7.226;2023-07-28T09:31:05;101639.28;;;18.99;100.00
25498;BME280;13406;53.380;7.226;2023-07-28T09:33:32;101600.13;;;18.76;100.00
25498;BME280;13406;53.380;7.226;2023-07-28T09:36:09;101648.47;;;18.97;100.00
25498;BME280;13406;53.380;7.226;2023-07-28T09:38:37;101657.22;;;18.88;100.00
25498;BME280;13406;53.380;7.226;2023-07-28T09:41:05;101618.44;;;18.69;100.00
25498;BME280;13406;53.380;7.226;2023-07-28T09:43:36;101655.34;;;19.12;100.00
25498;BME280;13406;53.380;7.226;2023-07-28T09:46:03;101650.63;;;18.95;100.00
25498;BME280;13406;53.380;7.226;2023-07-28T09:48:32;101664.34;;;19.12;100.00
25498;BME280;13406;53.380;7.226;2023-07-28T09:51:02;101635.00;;;19.14;100.00
25498;BME280;13406;53.380;7.226;2023-07-28T09:53:33;101687.88;;;19.42;100.00
25498;BME280;13406;53.380;7.226;2023-07-28T09:56:01;101646.84;;;19.20;100.00
25498;BME280;13406;53.380;7.226;2023-07-28T09:58:31;101642.22;;;19.32;100.00
25498;BME280;13406;53.380;7.226;2023-07-28T10:00:59;101658.19;;;19.40;100.00
25498;BME280;13406;53.380;7.226;2023-07-28T10:03:25;101658.88;;;19.59;100.00
25498;BME280;13406;53.380;7.226;2023-07-28T10:05:51;101632.41;;;19.43;100.00
25498;BME280;13406;53.380;7.226;2023-07-28T10:08:16;101636.06;;;19.37;100.00
25498;BME280;13406;53.380;7.226;2023-07-28T10:10:42;101611.97;;;19.29;100.00
25498;BME280;13406;53.380;7.226;2023-07-28T10:13:19;101641.38;;;19.55;100.00
25498;BME280;13406;53.380;7.226;2023-07-28T10:15:46;101638.44;;;19.45;100.00
25498;BME280;13406;53.380;7.226;2023-07-28T10:18:12;101622.09;;;19.57;100.00
25498;BME280;13406;53.380;7.226;2023-07-28T10:20:39;101606.41;;;19.35;100.00
25498;BME280;13406;53.380;7.226;2023-07-28T10:25:34;101612.03;;;19.69;100.00
25498;BME280;13406;53.380;7.226;2023-07-28T10:28:00;101587.75;;;19.79;100.00
25498;BME280;13406;53.380;7.226;2023-07-28T10:30:27;101587.38;;;19.76;100.00
25498;BME280;13406;53.380;7.226;2023-07-28T10:32:54;101488.09;;;19.09;100.00
25498;BME280;13406;53.380;7.226;2023-07-28T10:35:26;101579.38;;;19.57;100.00
25498;BME280;13406;53.380;7.226;2023-07-28T10:37:53;101569.34;;;19.46;100.00
25498;BME280;13406;53.380;7.226;2023-07-28T10:42:47;101521.47;;;19.45;100.00
25498;BME280;13406;53.380;7.226;2023-07-28T10:45:13;101541.63;;;19.61;100.00
25498;BME280;13406;53.380;7.226;2023-07-28T10:47:40;101546.97;;;19.56;100.00
25498;BME280;13406;53.380;7.226;2023-07-28T10:50:09;101497.72;;;19.29;100.00
25498;BME280;13406;53.380;7.226;2023-07-28T10:52:38;101525.94;;;19.51;100.00
25498;BME280;13406;53.380;7.226;2023-07-28T10:55:04;101512.81;;;19.48;100.00
25498;BME280;13406;53.380;7.226;2023-07-28T10:57:30;101512.81;;;19.48;100.00
25498;BME280;13406;53.380;7.226;2023-07-28T11:00:00;101511.28;;;19.40;100.00
25498;BME280;13406;53.380;7.226;2023-07-28T11:02:26;101513.69;;;19.25;100.00
25498;BME280;13406;53.380;7.226;2023-07-28T11:04:52;101492.88;;;19.31;100.00
25498;BME280;13406;53.380;7.226;2023-07-28T11:07:18;101495.94;;;19.75;100.00
25498;BME280;13406;53.380;7.226;2023-07-28T11:09:43;101489.81;;;19.68;100.00
25498;BME280;13406;53.380;7.226;2023-07-28T11:12:09;101487.97;;;19.85;100.00
25498;BME280;13406;53.380;7.226;2023-07-28T11:14:35;101441.44;;;19.58;100.00
25498;BME280;13406;53.380;7.226;2023-07-28T11:17:01;101453.97;;;19.88;100.00
25498;BME280;13406;53.380;7.226;2023-07-28T11:19:27;101403.56;;;19.68;100.00
25498;BME280;13406;53.380;7.226;2023-07-28T11:21:54;101445.88;;;20.09;100.00
25498;BME280;13406;53.380;7.226;2023-07-28T11:24:20;101411.06;;;19.78;100.00
25498;BME280;13406;53.380;7.226;2023-07-28T11:26:46;101404.22;;;20.09;100.00
25498;BME280;13406;53.380;7.226;2023-07-28T11:29:12;101390.41;;;20.32;100.00
25498;BME280;13406;53.380;7.226;2023-07-28T11:31:38;101371.16;;;20.39;100.00
25498;BME280;13406;53.380;7.226;2023-07-28T11:34:18;101351.75;;;20.14;100.00
25498;BME280;13406;53.380;7.226;2023-07-28T11:36:46;101363.81;;;20.40;100.00
25498;BME280;13406;53.380;7.226;2023-07-28T11:39:13;101347.94;;;20.53;100.00
25498;BME280;13406;53.380;7.226;2023-07-28T11:41:41;101251.09;;;20.24;100.00
25498;BME280;13406;53.380;7.226;2023-07-28T11:44:07;101319.44;;;20.61;100.00
25498;BME280;13406;53.380;7.226;2023-07-28T11:46:33;101299.47;;;20.77;100.00
25498;BME280;13406;53.380;7.226;2023-07-28T11:49:15;101295.88;;;20.77;100.00
25498;BME280;13406;53.380;7.226;2023-07-28T11:51:52;101275.38;;;20.69;100.00
25498;BME280;13406;53.380;7.226;2023-07-28T11:54:21;101277.06;;;20.75;100.00
25498;BME280;13406;53.380;7.226;2023-07-28T11:56:48;101273.78;;;20.73;100.00
25498;BME280;13406;53.380;7.226;2023-07-28T11:59:15;101258.19;;;20.96;100.00
25498;BME280;13406;53.380;7.226;2023-07-28T12:01:55;101251.13;;;21.00;100.00
25498;BME280;13406;53.380;7.226;2023-07-28T12:04:29;101246.00;;;21.04;100.00
25498;BME280;13406;53.380;7.226;2023-07-28T12:07:13;101243.06;;;21.10;100.00
25498;BME280;13406;53.380;7.226;2023-07-28T12:12:12;101202.59;;;21.29;100.00
25498;BME280;13406;53.380;7.226;2023-07-28T12:14:38;101196.66;;;21.37;100.00
25498;BME280;13406;53.380;7.226;2023-07-28T12:17:12;101172.75;;;21.55;100.00
25498;BME280;13406;53.380;7.226;2023-07-28T12:20:04;101138.78;;;21.35;100.00
25498;BME280;13406;53.380;7.226;2023-07-28T12:22:36;101138.91;;;21.13;100.00
25498;BME280;13406;53.380;7.226;2023-07-28T12:25:02;101146.34;;;21.28;100.00
25498;BME280;13406;53.380;7.226;2023-07-28T12:27:30;101122.84;;;21.22;100.00
25498;BME280;13406;53.380;7.226;2023-07-28T12:29:56;101116.91;;;21.30;100.00
25498;BME280;13406;53.380;7.226;2023-07-28T12:32:21;101104.53;;;21.60;100.00
25498;BME280;13406;53.380;7.226;2023-07-28T12:34:48;101094.22;;;21.67;100.00
25498;BME280;13406;53.380;7.226;2023-07-28T12:37:14;101096.78;;;21.36;100.00
25498;BME280;13406;53.380;7.226;2023-07-28T12:39:39;101084.03;;;21.47;100.00
25498;BME280;13406;53.380;7.226;2023-07-28T12:42:08;101069.88;;;21.60;100.00
25498;BME280;13406;53.380;7.226;2023-07-28T12:44:35;101060.38;;;21.73;100.00
25498;BME280;13406;53.380;7.226;2023-07-28T12:47:01;101047.81;;;21.77;100.00